Elba, AL (36323)

3:59 PM CST on January 28, 2015 (GMT -0600)
APRSWXNET Elba AL US | Change Station
CLOSE
Current Station
Personal Weather Station
Location: Elba, AL
Elevation: 400 ft
Nearby Weather Stations

Elev 400 ft 31.41 °N, 86.09 °W | Updated 25 minutes ago

Clear
Clear
60 °F
Feels Like 60 °F
N
1
Wind Variable Wind from NE
Gusts 3.0 mph

Today
High -- | Low -- °F
--% Chance of Precip.
Yesterday
High -- | Low -- °F
Precip. -- in
6:39 AM 5:15 PM
Waxing Gibbous, 68% visible
Pressure 30.23 in
Visibility 10.0 miles
Clouds Clear
Dew Point 33 °F
Humidity 36%
Rainfall 0.00 in
Snow Depth Not available.
UV 1 out of 12
Pollen 3.10 out of 12
Air Quality Not available.
Flu Activity Not available.
METAR KLOR 282153Z AUTO 06004KT 10SM CLR 15/M02 A3023 RMK AO2 SLP236 T01501022

More Conditions Fewer Conditions

Pressure 30.23 in
Visibility 10.0 miles
Clouds Clear
Dew Point 33 °F
Humidity 36%
Rainfall 0.00 in
Snow Depth Not available.
UV 1 out of 12
Pollen 3.10 out of 12
Air Quality Not available.
Flu Activity Not available.
METAR KLOR 282153Z AUTO 06004KT 10SM CLR 15/M02 A3023 RMK AO2 SLP236 T01501022

More Conditions Fewer Conditions

10-Day Weather Forecast

Almanac

Astronomy

Jan. 28, 2015 Rise Set
Actual Time
Civil Twilight
Nautical Twilight
Astronomical Twilight
Moon
Length of Visible Light
Length of Day
Tomorrow will be .
, % of the Moon is Illuminated

Today's Extremes

State Highs State Lows

Community

WunderPhotos

Upload Photos

1,791,271 photos uploaded!

WunderBlogs® & News

Nearby

Air Quality

  Air Quality AQ Index Pollutant
Not available.

Snow Depth

Station Depth Elevation

Earthquake Activity

City Distance Mag. Time & Date
Minimum magnitude displayed is 2.5.

Coastal Water Temperatures

Place Temperature

Nearby Weather Stations